createdAt,value
2023-01-07T09:37:34.733Z,82.92
2023-01-07T09:41:32.028Z,81.93
2023-01-07T09:42:56.674Z,81.69
2023-01-07T09:44:15.329Z,80.91
2023-01-07T09:45:21.016Z,79.72
2023-01-07T09:46:23.441Z,78.57
2023-01-07T09:47:29.350Z,77.21
2023-01-07T09:48:42.017Z,75.16
2023-01-07T09:49:47.538Z,73.60
2023-01-07T09:51:45.618Z,68.33
2023-01-07T09:52:51.927Z,66.49
2023-01-07T09:53:56.940Z,62.29
2023-01-07T09:55:25.104Z,60.98
2023-01-07T09:56:32.535Z,57.85
2023-01-07T09:57:34.147Z,57.35
2023-01-07T09:58:37.883Z,57.28
2023-01-07T09:59:39.469Z,58.65
2023-01-07T10:00:55.118Z,58.71
2023-01-07T10:02:17.912Z,57.71
2023-01-07T10:03:44.654Z,60.95
2023-01-07T10:05:24.757Z,59.70
2023-01-07T10:06:49.317Z,60.10
2023-01-07T10:08:29.206Z,61.25
2023-01-07T10:09:50.525Z,64.05
2023-01-07T10:10:58.538Z,66.80
2023-01-07T10:12:17.709Z,69.35
2023-01-07T10:13:24.953Z,70.19
2023-01-07T10:14:45.350Z,70.45
2023-01-07T10:15:55.673Z,71.11
2023-01-07T10:17:21.871Z,71.33
2023-01-07T10:18:38.627Z,72.18
2023-01-07T10:19:57.126Z,72.65
2023-01-07T10:21:24.609Z,72.60
2023-01-07T10:22:32.711Z,74.01
2023-01-07T10:23:38.566Z,74.80
2023-01-07T10:24:44.882Z,75.16
2023-01-07T10:25:50.410Z,75.19
2023-01-07T10:26:56.035Z,74.60
2023-01-07T10:28:03.308Z,73.92
2023-01-07T10:29:40.745Z,70.77
2023-01-07T10:30:46.017Z,70.08
2023-01-07T10:31:50.437Z,65.81
2023-01-07T10:33:04.397Z,69.00
2023-01-07T10:34:14.368Z,68.96
2023-01-07T10:35:20.453Z,69.07
2023-01-07T10:36:32.437Z,69.89
2023-01-07T10:37:37.372Z,70.75
2023-01-07T10:38:42.897Z,70.54
2023-01-07T10:39:59.722Z,66.20
2023-01-07T10:41:12.866Z,61.35
2023-01-07T10:42:23.983Z,58.96
2023-01-07T10:43:44.178Z,58.84
2023-01-07T10:45:18.152Z,59.76
2023-01-07T10:46:41.187Z,58.41
2023-01-07T10:48:01.444Z,59.77
2023-01-07T10:49:16.015Z,62.00
2023-01-07T10:50:24.109Z,65.32
2023-01-07T10:52:10.663Z,66.28
2023-01-07T10:53:33.531Z,64.48
2023-01-07T10:54:50.171Z,59.36
2023-01-07T10:56:09.503Z,57.96
2023-01-07T10:57:18.351Z,56.57
2023-01-07T10:58:19.818Z,55.26
2023-01-07T10:59:22.587Z,53.38
2023-01-07T11:00:25.083Z,54.19
2023-01-07T11:01:41.257Z,55.43
2023-01-07T11:02:50.604Z,53.94
2023-01-07T11:03:54.111Z,53.02
2023-01-07T11:04:57.058Z,53.62
2023-01-07T11:06:04.753Z,51.22
2023-01-07T11:07:13.778Z,50.79
2023-01-07T11:08:38.740Z,50.46
2023-01-07T11:09:43.823Z,51.38
2023-01-07T11:10:45.246Z,50.90
2023-01-07T11:11:48.234Z,52.43
2023-01-07T11:12:52.338Z,54.38
2023-01-07T11:14:26.622Z,53.62
2023-01-07T11:15:50.498Z,53.38
2023-01-07T11:16:56.894Z,52.15
2023-01-07T11:18:31.866Z,51.93
2023-01-07T11:19:52.523Z,52.01
2023-01-07T11:20:55.863Z,50.28
2023-01-07T11:21:57.255Z,50.20
2023-01-07T11:22:58.803Z,52.30
2023-01-07T11:24:01.807Z,53.81
2023-01-07T11:25:28.364Z,55.60
2023-01-07T11:26:32.872Z,54.58
2023-01-07T11:27:34.946Z,53.67
2023-01-07T11:28:40.765Z,52.63
2023-01-07T11:29:56.012Z,54.24
2023-01-07T11:31:00.951Z,55.29
2023-01-07T11:32:03.903Z,55.69
2023-01-07T11:33:07.069Z,56.54
2023-01-07T11:34:20.159Z,56.32
2023-01-07T11:35:23.281Z,55.36
2023-01-07T11:36:42.303Z,53.84
2023-01-07T11:37:46.631Z,52.40
2023-01-07T11:38:48.121Z,51.70
2023-01-07T11:40:01.395Z,52.16
2023-01-07T11:41:05.123Z,52.57
2023-01-07T11:42:37.783Z,54.04
2023-01-07T11:43:40.679Z,53.89
2023-01-07T11:44:42.198Z,54.46
2023-01-07T11:46:20.254Z,54.18
2023-01-07T11:47:18.021Z,52.89
2023-01-07T11:48:36.646Z,51.87
2023-01-07T11:49:44.388Z,51.59
2023-01-07T11:51:05.428Z,53.26
2023-01-07T11:52:16.904Z,53.48
2023-01-07T11:53:18.230Z,52.98
2023-01-07T11:54:26.136Z,54.25
2023-01-07T11:55:28.749Z,56.35
2023-01-07T11:56:33.178Z,56.15
2023-01-07T11:57:34.583Z,56.77
2023-01-07T11:58:44.665Z,57.09
2023-01-07T11:59:46.254Z,57.75
2023-01-07T12:01:12.888Z,56.59
2023-01-07T12:02:26.478Z,56.71
2023-01-07T12:03:27.981Z,56.18
2023-01-07T12:04:35.793Z,54.87
2023-01-07T12:05:39.215Z,56.69
2023-01-07T12:06:44.342Z,57.85
2023-01-07T12:07:51.474Z,57.30
2023-01-07T12:09:15.013Z,58.92
2023-01-07T12:10:26.894Z,58.23
2023-01-07T12:11:34.433Z,57.71
2023-01-07T12:12:39.200Z,57.34
2023-01-07T12:13:47.930Z,58.05
2023-01-07T12:14:49.687Z,58.49
2023-01-07T12:15:58.260Z,58.42
2023-01-07T12:17:17.076Z,59.10
2023-01-07T12:18:41.350Z,58.32
2023-01-07T12:20:13.294Z,59.97
2023-01-07T12:21:24.082Z,60.61
2023-01-07T12:22:39.827Z,60.65
2023-01-07T12:23:52.899Z,59.10
2023-01-07T12:25:21.948Z,60.02
2023-01-07T12:26:35.802Z,59.10
2023-01-07T12:27:46.343Z,59.12
2023-01-07T12:28:50.767Z,59.29
2023-01-07T12:30:20.638Z,59.24
2023-01-07T12:31:49.493Z,58.42
2023-01-07T12:33:00.184Z,58.08
2023-01-07T12:34:22.356Z,57.37
2023-01-07T12:35:35.329Z,56.09
2023-01-07T12:36:54.951Z,55.84
2023-01-07T12:38:09.055Z,57.66
2023-01-07T12:39:27.022Z,59.17
2023-01-07T12:40:49.718Z,59.51
2023-01-07T12:43:30.900Z,59.50
2023-01-07T12:44:34.716Z,59.36
2023-01-07T12:45:54.364Z,59.13
2023-01-07T12:47:32.010Z,59.61
2023-01-07T12:48:36.893Z,59.96
2023-01-07T12:50:02.755Z,59.03
2023-01-07T12:51:14.264Z,57.87
2023-01-07T12:52:29.888Z,59.19
2023-01-07T12:54:12.876Z,59.26
2023-01-07T12:55:22.296Z,59.36
2023-01-07T12:56:32.980Z,59.39
2023-01-07T12:57:37.918Z,58.82
2023-01-07T12:59:45.960Z,59.28
2023-01-07T13:00:46.634Z,59.95
2023-01-07T13:02:12.882Z,59.97
2023-01-07T13:03:28.212Z,60.70
2023-01-07T13:04:42.974Z,59.80
2023-01-07T13:06:06.822Z,60.16
2023-01-07T13:07:21.151Z,59.59
2023-01-07T13:08:43.354Z,57.98
2023-01-07T13:09:59.737Z,57.90
2023-01-07T13:11:14.886Z,59.14
2023-01-07T13:12:46.518Z,59.99
2023-01-07T13:13:53.182Z,59.53
2023-01-07T13:14:58.869Z,58.88
2023-01-07T13:16:00.853Z,58.92
2023-01-07T13:17:16.142Z,58.06
2023-01-07T13:18:19.841Z,58.93
2023-01-07T13:19:21.484Z,58.80
2023-01-07T13:20:50.865Z,59.79
2023-01-07T13:21:52.670Z,60.44
2023-01-07T13:22:56.480Z,59.34
2023-01-07T13:24:56.403Z,59.36
2023-01-07T13:25:53.898Z,60.48
2023-01-07T13:27:23.628Z,60.83
2023-01-07T13:28:52.749Z,58.68
2023-01-07T13:30:00.219Z,58.04
2023-01-07T13:31:26.676Z,58.56
2023-01-07T13:32:50.060Z,58.52
2023-01-07T13:34:03.614Z,59.12
2023-01-07T13:35:36.699Z,59.32
2023-01-07T13:37:03.602Z,59.99
2023-01-07T13:38:19.032Z,60.02
2023-01-07T13:39:23.348Z,59.79
2023-01-07T13:41:05.179Z,59.99
2023-01-07T13:42:27.214Z,59.04
2023-01-07T13:43:49.725Z,59.73
2023-01-07T13:44:57.024Z,59.13
2023-01-07T13:46:03.093Z,58.12
2023-01-07T13:47:05.468Z,58.46
2023-01-07T13:48:18.908Z,58.56
2023-01-07T13:49:25.547Z,58.92
2023-01-07T13:50:38.269Z,58.79
2023-01-07T13:51:39.769Z,59.05
2023-01-07T13:52:45.808Z,59.74
2023-01-07T13:53:47.509Z,60.22
2023-01-07T13:54:48.892Z,60.16
2023-01-07T13:55:50.739Z,59.63
2023-01-07T13:56:52.564Z,60.24
2023-01-07T13:57:53.916Z,59.92
2023-01-07T13:58:56.969Z,60.55
2023-01-07T14:00:01.508Z,60.43
2023-01-07T14:01:16.240Z,60.03
2023-01-07T14:02:29.338Z,60.55
2023-01-07T14:03:34.486Z,60.59
2023-01-07T14:04:48.175Z,60.33
2023-01-07T14:05:49.622Z,59.92
2023-01-07T14:06:52.558Z,59.71
2023-01-07T14:08:02.310Z,59.95
2023-01-07T14:09:06.645Z,60.01
2023-01-07T14:10:37.613Z,60.29
2023-01-07T14:12:07.661Z,59.87
2023-01-07T14:13:27.223Z,60.01
2023-01-07T14:14:49.435Z,59.73
2023-01-07T14:16:14.921Z,59.39
2023-01-07T14:17:40.207Z,60.92
2023-01-07T14:18:53.464Z,60.53
2023-01-07T14:20:20.467Z,60.12
2023-01-07T14:21:35.255Z,60.03
2023-01-07T14:23:19.944Z,60.24
2023-01-07T14:24:51.694Z,60.12
2023-01-07T14:26:08.295Z,59.68
2023-01-07T14:27:58.398Z,59.59
2023-01-07T14:29:40.735Z,59.65
2023-01-07T14:30:44.940Z,60.50
2023-01-07T14:31:46.616Z,60.44
2023-01-07T14:33:17.777Z,60.11
2023-01-07T14:34:26.645Z,59.42
2023-01-07T14:35:38.359Z,58.91
2023-01-07T14:37:01.565Z,58.89
2023-01-07T14:38:28.051Z,57.98
2023-01-07T14:39:44.166Z,58.40
2023-01-07T14:40:45.483Z,58.59
2023-01-07T14:42:18.985Z,59.02
2023-01-07T14:43:43.286Z,58.71
2023-01-07T14:44:51.252Z,59.51
2023-01-07T14:45:54.413Z,59.54
2023-01-07T14:46:56.120Z,59.66
2023-01-07T14:47:57.849Z,60.51
2023-01-07T14:49:02.215Z,60.42
2023-01-07T14:50:25.509Z,61.35
2023-01-07T14:51:57.638Z,61.97
2023-01-07T14:53:29.474Z,61.31
2023-01-07T14:55:00.756Z,60.92
2023-01-07T14:56:09.407Z,61.54
2023-01-07T14:57:46.622Z,61.51
2023-01-07T14:59:07.895Z,60.94
2023-01-07T15:00:41.050Z,61.61
2023-01-07T15:01:54.403Z,61.78
2023-01-07T15:03:17.927Z,62.04
2023-01-07T15:04:51.985Z,61.85
2023-01-07T15:06:46.983Z,62.11
2023-01-07T15:07:52.132Z,63.11
2023-01-07T15:09:21.331Z,63.01
2023-01-07T15:10:44.801Z,63.47
2023-01-07T15:12:06.450Z,65.36
2023-01-07T15:13:34.168Z,66.13
2023-01-07T15:15:02.297Z,67.25
2023-01-07T15:16:11.359Z,67.45
2023-01-07T15:17:15.034Z,67.70
2023-01-07T15:18:16.570Z,68.27
2023-01-07T15:19:18.102Z,68.43
2023-01-07T15:20:19.583Z,69.11
2023-01-07T15:21:41.404Z,69.15
2023-01-07T15:22:51.860Z,68.69
2023-01-07T15:24:15.025Z,68.35
2023-01-07T15:25:34.718Z,68.24
2023-01-07T15:26:38.679Z,68.29
2023-01-07T15:28:15.697Z,68.10
2023-01-07T15:29:43.364Z,68.11
2023-01-07T15:30:58.229Z,69.08
2023-01-07T15:32:08.709Z,69.75
2023-01-07T15:33:41.065Z,70.17
2023-01-07T15:34:43.755Z,70.50
2023-01-07T15:35:46.167Z,71.04
2023-01-07T15:36:52.180Z,71.21
2023-01-07T15:37:53.764Z,71.29
2023-01-07T15:38:57.730Z,71.65
2023-01-07T15:39:59.442Z,71.96
2023-01-07T15:41:01.020Z,72.15
